Time;durP1;ratioP1;P1;durP2;ratioP2;P2;SDS_P1;SDS_P2;PMS_P1;PMS_P2;Temp;Humidity;BMP_temperature;BMP_pressure;BME280_temperature;BME280_humidity;BME280_pressure;Samples;Min_cycle;Max_cycle;Signal;HPM_P1;HPM_P2
2023/09/24 00:02:07;;;;;;;;;;;11.40;99.90;;;;;;5073593;28;19909;-70
2023/09/24 00:04:32;;;;;;;;;;;11.40;99.90;;;;;;5058245;28;19913;-71
2023/09/24 00:06:58;;;;;;;;;;;11.40;99.90;;;;;;5058187;28;19913;-71
2023/09/24 00:09:23;;;;;;;;;;;11.30;99.90;;;;;;5058302;28;20401;-70
2023/09/24 00:11:49;;;;;;;;;;;11.30;99.90;;;;;;5058145;28;20348;-71
2023/09/24 00:14:14;;;;;;;;;;;11.30;99.90;;;;;;5057909;28;19912;-70
2023/09/24 00:16:40;;;;;;;;;;;11.20;99.90;;;;;;5057796;28;19908;-70
2023/09/24 00:19:06;;;;;;;;;;;11.20;99.90;;;;;;5090076;28;19919;-70
2023/09/24 00:21:31;;;;;;;;;;;11.20;99.90;;;;;;5058151;28;19919;-70
2023/09/24 00:23:57;;;;;;;;;;;11.20;99.90;;;;;;5057914;28;19913;-71
2023/09/24 00:26:24;;;;;;;;;;;11.30;99.90;;;;;;5057885;28;19924;-70
2023/09/24 00:28:50;;;;;;;;;;;11.20;99.90;;;;;;5057985;28;19913;-70
2023/09/24 00:31:15;;;;;;;;;;;11.10;99.90;;;;;;5073054;28;20026;-70
2023/09/24 00:33:41;;;;;;;;;;;11.00;99.90;;;;;;5057412;28;19912;-70
2023/09/24 00:36:07;;;;;;;;;;;11.10;99.90;;;;;;5057522;28;19909;-70
2023/09/24 00:38:32;;;;;;;;;;;11.00;99.90;;;;;;5057444;28;19920;-70
2023/09/24 00:40:58;;;;;;;;;;;10.90;99.90;;;;;;5057768;28;20003;-70
2023/09/24 00:43:25;;;;;;;;;;;10.90;99.90;;;;;;5046787;28;19908;-70
2023/09/24 00:45:51;;;;;;;;;;;10.90;99.90;;;;;;5057380;28;20003;-70
2023/09/24 00:48:17;;;;;;;;;;;10.90;99.90;;;;;;5057474;28;19959;-70
2023/09/24 00:50:43;;;;;;;;;;;10.80;99.90;;;;;;5072797;28;20321;-70
2023/09/24 00:53:09;;;;;;;;;;;10.80;99.90;;;;;;5072891;28;19919;-70
2023/09/24 00:55:34;;;;;;;;;;;10.80;99.90;;;;;;5072742;28;20729;-70
2023/09/24 00:58:02;;;;;;;;;;;10.80;99.90;;;;;;5072619;28;19912;-70
2023/09/24 01:00:30;;;;;;;;;;;10.80;99.90;;;;;;5057031;28;20270;-70
2023/09/24 01:02:57;;;;;;;;;;;10.80;99.90;;;;;;5057391;28;19913;-70
2023/09/24 01:05:23;;;;;;;;;;;10.70;99.90;;;;;;5072090;28;20027;-70
2023/09/24 01:07:48;;;;;;;;;;;10.70;99.90;;;;;;5057278;28;20399;-70
2023/09/24 01:10:15;;;;;;;;;;;10.70;99.90;;;;;;5056805;28;20054;-71
2023/09/24 01:12:52;;;;;;;;;;;10.60;99.90;;;;;;5056989;28;19917;-70
2023/09/24 01:15:18;;;;;;;;;;;10.60;99.90;;;;;;5056606;28;19913;-70
2023/09/24 01:17:43;;;;;;;;;;;10.60;99.90;;;;;;5056986;28;19919;-71
2023/09/24 01:20:13;;;;;;;;;;;10.60;99.90;;;;;;5056694;28;19917;-70
2023/09/24 01:22:39;;;;;;;;;;;10.60;99.90;;;;;;5089186;28;19920;-71
2023/09/24 01:25:05;;;;;;;;;;;10.50;99.90;;;;;;5056528;28;19919;-71
2023/09/24 01:27:36;;;;;;;;;;;10.50;99.90;;;;;;5056802;28;20065;-70
2023/09/24 01:30:05;;;;;;;;;;;10.50;99.90;;;;;;5056470;28;19977;-71
2023/09/24 01:32:30;;;;;;;;;;;10.50;99.90;;;;;;5056664;28;19912;-71
2023/09/24 01:34:56;;;;;;;;;;;10.50;99.90;;;;;;5056350;28;19920;-70
2023/09/24 01:37:21;;;;;;;;;;;10.50;99.90;;;;;;5056608;28;19912;-70
2023/09/24 01:39:49;;;;;;;;;;;10.50;99.90;;;;;;5056403;28;19916;-71
2023/09/24 01:42:15;;;;;;;;;;;10.50;99.90;;;;;;5056545;28;19912;-70
2023/09/24 01:44:41;;;;;;;;;;;10.50;99.90;;;;;;5055058;28;19909;-70
2023/09/24 01:47:07;;;;;;;;;;;10.50;99.90;;;;;;5056499;28;19913;-70
2023/09/24 01:49:33;;;;;;;;;;;10.50;99.90;;;;;;5056187;28;19915;-71
2023/09/24 01:51:59;;;;;;;;;;;10.50;99.90;;;;;;5056248;28;19952;-70
2023/09/24 01:54:28;;;;;;;;;;;10.50;99.90;;;;;;5056137;28;19919;-71
2023/09/24 01:56:54;;;;;;;;;;;10.50;99.90;;;;;;5056455;28;19919;-71
2023/09/24 01:59:20;;;;;;;;;;;10.50;99.90;;;;;;5056194;28;19954;-70
2023/09/24 02:01:45;;;;;;;;;;;10.50;99.90;;;;;;5071334;28;19920;-70
2023/09/24 02:04:11;;;;;;;;;;;10.40;99.90;;;;;;5056092;28;19909;-71
2023/09/24 02:06:37;;;;;;;;;;;10.40;99.90;;;;;;5056161;28;19909;-70
2023/09/24 02:09:03;;;;;;;;;;;10.40;99.90;;;;;;5055938;28;20377;-70
2023/09/24 02:11:28;;;;;;;;;;;10.40;99.90;;;;;;5056047;28;19967;-70
2023/09/24 02:13:54;;;;;;;;;;;10.40;99.90;;;;;;5053031;28;19971;-70
2023/09/24 02:16:19;;;;;;;;;;;10.40;99.90;;;;;;5055783;28;19936;-70
2023/09/24 02:18:46;;;;;;;;;;;10.40;99.90;;;;;;5055869;28;19955;-70
2023/09/24 02:21:14;;;;;;;;;;;10.30;99.90;;;;;;5071221;28;19909;-70
2023/09/24 02:23:43;;;;;;;;;;;10.30;99.90;;;;;;5088077;28;19909;-70
2023/09/24 02:26:08;;;;;;;;;;;10.30;99.90;;;;;;5055711;28;20400;-72
2023/09/24 02:28:38;;;;;;;;;;;10.20;99.90;;;;;;5055804;28;19921;-70
2023/09/24 02:31:06;;;;;;;;;;;10.20;99.90;;;;;;5055616;28;19912;-70
2023/09/24 02:33:32;;;;;;;;;;;10.20;99.90;;;;;;5055380;28;19912;-70
2023/09/24 02:35:57;;;;;;;;;;;10.20;99.90;;;;;;5055310;28;20471;-70
2023/09/24 02:38:24;;;;;;;;;;;10.10;99.90;;;;;;5054445;28;19999;-71
2023/09/24 02:40:50;;;;;;;;;;;10.10;99.90;;;;;;5055706;28;19916;-70
2023/09/24 02:43:15;;;;;;;;;;;10.10;99.90;;;;;;5055350;28;19917;-72
2023/09/24 02:45:41;;;;;;;;;;;10.10;99.90;;;;;;5070871;28;20003;-70
2023/09/24 02:48:07;;;;;;;;;;;10.10;99.90;;;;;;5055466;28;19909;-70
2023/09/24 02:50:33;;;;;;;;;;;10.00;99.90;;;;;;5055413;28;19917;-70
2023/09/24 02:52:59;;;;;;;;;;;10.00;99.90;;;;;;5054199;28;19970;-70
2023/09/24 02:55:26;;;;;;;;;;;10.00;99.90;;;;;;5055515;28;19976;-70
2023/09/24 02:57:52;;;;;;;;;;;10.00;99.90;;;;;;5058002;28;19913;-70
2023/09/24 03:00:19;;;;;;;;;;;9.90;99.90;;;;;;5057793;28;19920;-71
2023/09/24 03:02:45;;;;;;;;;;;9.80;99.90;;;;;;5059528;28;19912;-71
2023/09/24 03:05:12;;;;;;;;;;;9.80;99.90;;;;;;5056930;28;19934;-70
2023/09/24 03:07:38;;;;;;;;;;;9.80;99.90;;;;;;5057634;28;20406;-70
2023/09/24 03:10:06;;;;;;;;;;;9.80;99.90;;;;;;5059276;28;19909;-71
2023/09/24 03:12:32;;;;;;;;;;;9.80;99.90;;;;;;5059111;28;19916;-71
2023/09/24 03:14:58;;;;;;;;;;;9.80;99.90;;;;;;5059112;28;19916;-70
2023/09/24 03:17:24;;;;;;;;;;;9.80;99.90;;;;;;5057621;28;19976;-70
2023/09/24 03:19:49;;;;;;;;;;;9.80;99.90;;;;;;5059153;28;20014;-70
2023/09/24 03:22:15;;;;;;;;;;;9.80;99.90;;;;;;5059108;28;19913;-70
2023/09/24 03:24:41;;;;;;;;;;;9.70;99.90;;;;;;5059057;28;19912;-70
2023/09/24 03:27:07;;;;;;;;;;;9.70;99.90;;;;;;5058915;28;19925;-70
2023/09/24 03:29:32;;;;;;;;;;;9.70;99.90;;;;;;5058969;28;20467;-70
2023/09/24 03:31:58;;;;;;;;;;;9.70;99.90;;;;;;5058906;28;20437;-72
2023/09/24 03:34:24;;;;;;;;;;;9.60;99.90;;;;;;5058994;28;19909;-72
2023/09/24 03:36:49;;;;;;;;;;;9.70;99.90;;;;;;5058543;28;19944;-72
2023/09/24 03:39:15;;;;;;;;;;;9.60;99.90;;;;;;5058790;28;19964;-72
2023/09/24 03:41:40;;;;;;;;;;;9.60;99.90;;;;;;5058809;28;20003;-72
2023/09/24 03:44:06;;;;;;;;;;;9.60;99.90;;;;;;5058775;28;19963;-72
2023/09/24 03:46:32;;;;;;;;;;;9.60;99.90;;;;;;5057066;28;20409;-72
2023/09/24 03:48:57;;;;;;;;;;;9.50;99.90;;;;;;5058488;28;20413;-71
2023/09/24 03:51:23;;;;;;;;;;;9.50;99.90;;;;;;5058534;28;20003;-72
2023/09/24 03:53:48;;;;;;;;;;;9.50;99.90;;;;;;5073915;28;19920;-72
2023/09/24 03:56:14;;;;;;;;;;;9.50;99.90;;;;;;5058430;28;19909;-69
2023/09/24 03:58:39;;;;;;;;;;;9.50;99.90;;;;;;5058630;28;19962;-69
2023/09/24 04:01:09;;;;;;;;;;;9.40;99.90;;;;;;5056971;28;19913;-72
2023/09/24 04:03:35;;;;;;;;;;;9.40;99.90;;;;;;5055679;28;20448;-72
2023/09/24 04:06:06;;;;;;;;;;;9.30;99.90;;;;;;5056928;28;19955;-72
2023/09/24 04:08:31;;;;;;;;;;;9.30;99.90;;;;;;5055719;28;20349;-71
2023/09/24 04:10:57;;;;;;;;;;;9.30;99.90;;;;;;5057574;28;19948;-71
2023/09/24 04:13:23;;;;;;;;;;;9.20;99.90;;;;;;5051169;28;19949;-71
2023/09/24 04:15:51;;;;;;;;;;;9.20;99.90;;;;;;5054533;28;20337;-71
2023/09/24 04:18:17;;;;;;;;;;;9.20;99.90;;;;;;5056610;28;20638;-71
2023/09/24 04:20:43;;;;;;;;;;;9.20;99.90;;;;;;5056598;28;19909;-71
2023/09/24 04:23:11;;;;;;;;;;;9.10;99.90;;;;;;5058149;28;20292;-71
2023/09/24 04:25:37;;;;;;;;;;;9.10;99.90;;;;;;5057953;28;19971;-71
2023/09/24 04:28:03;;;;;;;;;;;9.10;99.90;;;;;;5057692;28;19947;-71
2023/09/24 04:30:28;;;;;;;;;;;9.10;99.90;;;;;;5057354;28;20678;-71
2023/09/24 04:32:54;;;;;;;;;;;9.10;99.90;;;;;;5071759;28;19928;-71
2023/09/24 04:35:20;;;;;;;;;;;9.10;99.90;;;;;;5056245;28;20718;-70
2023/09/24 04:37:52;;;;;;;;;;;9.10;99.90;;;;;;5056237;28;19917;-70
2023/09/24 04:40:18;;;;;;;;;;;9.10;99.90;;;;;;5057845;28;19916;-71
2023/09/24 04:42:45;;;;;;;;;;;9.00;99.90;;;;;;5057651;28;19909;-71
2023/09/24 04:45:11;;;;;;;;;;;9.10;99.90;;;;;;5057783;28;19909;-71
2023/09/24 04:47:40;;;;;;;;;;;9.10;99.90;;;;;;5056027;28;19995;-71
2023/09/24 04:50:06;;;;;;;;;;;9.00;99.90;;;;;;5056772;28;19982;-71
2023/09/24 04:52:32;;;;;;;;;;;9.00;99.90;;;;;;5056753;28;20408;-71
2023/09/24 04:54:57;;;;;;;;;;;9.00;99.90;;;;;;5057144;28;20046;-71
2023/09/24 04:57:23;;;;;;;;;;;9.00;99.90;;;;;;5057179;28;19913;-72
2023/09/24 04:59:53;;;;;;;;;;;9.00;99.90;;;;;;5078893;28;19920;-71
2023/09/24 05:02:23;;;;;;;;;;;9.00;99.90;;;;;;5056250;28;20443;-71
2023/09/24 05:04:49;;;;;;;;;;;9.00;99.90;;;;;;5057460;28;19996;-71
2023/09/24 05:07:14;;;;;;;;;;;9.00;99.90;;;;;;5056951;28;19943;-71
2023/09/24 05:09:40;;;;;;;;;;;9.00;99.90;;;;;;5057234;28;19913;-71
2023/09/24 05:12:05;;;;;;;;;;;8.90;99.90;;;;;;5056836;28;19917;-71
2023/09/24 05:14:31;;;;;;;;;;;8.90;99.90;;;;;;5056679;28;20430;-71
2023/09/24 05:16:58;;;;;;;;;;;8.80;99.90;;;;;;5056850;28;19909;-71
2023/09/24 05:19:23;;;;;;;;;;;8.70;99.90;;;;;;5055688;28;19916;-71
2023/09/24 05:21:49;;;;;;;;;;;8.70;99.90;;;;;;5056754;28;19913;-71
2023/09/24 05:24:14;;;;;;;;;;;8.70;99.90;;;;;;5056922;28;19913;-71
2023/09/24 05:26:40;;;;;;;;;;;8.70;99.90;;;;;;5056363;28;20313;-71
2023/09/24 05:29:05;;;;;;;;;;;8.60;99.90;;;;;;5056881;28;19963;-71
2023/09/24 05:31:31;;;;;;;;;;;8.60;99.90;;;;;;5056162;28;19916;-71
2023/09/24 05:33:57;;;;;;;;;;;8.60;99.90;;;;;;5056822;28;19912;-71
2023/09/24 05:36:23;;;;;;;;;;;8.60;99.90;;;;;;5056430;28;20459;-71
2023/09/24 05:38:48;;;;;;;;;;;8.60;99.90;;;;;;5055315;28;19940;-71
2023/09/24 05:41:14;;;;;;;;;;;8.60;99.90;;;;;;5056673;28;19912;-71
2023/09/24 05:43:44;;;;;;;;;;;8.60;99.90;;;;;;5056336;28;19913;-71
2023/09/24 05:46:12;;;;;;;;;;;8.60;99.90;;;;;;5056462;28;19909;-71
2023/09/24 05:48:38;;;;;;;;;;;8.50;99.90;;;;;;5056315;28;19916;-71
2023/09/24 05:51:04;;;;;;;;;;;8.50;99.90;;;;;;5056375;28;19912;-71
2023/09/24 05:53:29;;;;;;;;;;;8.50;99.90;;;;;;5056415;28;19916;-71
2023/09/24 05:55:55;;;;;;;;;;;8.50;99.90;;;;;;5056258;28;19935;-71
2023/09/24 05:58:21;;;;;;;;;;;8.50;99.90;;;;;;5054902;28;20377;-71
2023/09/24 06:00:47;;;;;;;;;;;8.50;99.90;;;;;;5054711;28;19974;-71
2023/09/24 06:03:14;;;;;;;;;;;8.50;99.90;;;;;;5056319;28;19909;-71
2023/09/24 06:05:40;;;;;;;;;;;8.60;99.90;;;;;;5056064;28;19940;-71
2023/09/24 06:08:06;;;;;;;;;;;8.60;99.90;;;;;;5056096;28;19999;-71
2023/09/24 06:10:32;;;;;;;;;;;8.60;99.90;;;;;;5056157;28;19959;-71
2023/09/24 06:12:57;;;;;;;;;;;8.60;99.90;;;;;;5056046;28;19924;-71
2023/09/24 06:15:23;;;;;;;;;;;8.70;99.90;;;;;;5069320;28;19909;-71
2023/09/24 06:17:49;;;;;;;;;;;8.70;99.90;;;;;;5056083;28;20356;-71
2023/09/24 06:20:16;;;;;;;;;;;8.80;99.90;;;;;;5055773;28;19909;-71
2023/09/24 06:22:42;;;;;;;;;;;8.80;99.90;;;;;;5056141;28;19948;-71
2023/09/24 06:25:08;;;;;;;;;;;8.90;99.90;;;;;;5055630;28;19916;-71
2023/09/24 06:27:33;;;;;;;;;;;9.00;99.90;;;;;;5055753;28;20400;-71
2023/09/24 06:29:59;;;;;;;;;;;9.00;99.90;;;;;;5053770;28;20343;-71
2023/09/24 06:32:28;;;;;;;;;;;9.10;99.90;;;;;;5055858;28;20288;-72
2023/09/24 06:34:54;;;;;;;;;;;9.20;99.90;;;;;;5055628;28;19909;-72
2023/09/24 06:37:20;;;;;;;;;;;9.30;99.90;;;;;;5055829;28;20004;-72
2023/09/24 06:39:45;;;;;;;;;;;9.30;99.90;;;;;;5055512;28;20415;-71
2023/09/24 06:42:11;;;;;;;;;;;9.40;99.90;;;;;;5088010;28;19908;-72
2023/09/24 06:44:36;;;;;;;;;;;9.40;99.90;;;;;;5055149;28;19913;-71
2023/09/24 06:47:02;;;;;;;;;;;9.50;99.90;;;;;;5048143;28;19913;-72
2023/09/24 06:49:28;;;;;;;;;;;9.60;99.90;;;;;;5054464;28;20678;-71
2023/09/24 06:51:53;;;;;;;;;;;9.70;99.90;;;;;;5055625;28;19917;-71
2023/09/24 06:54:19;;;;;;;;;;;9.80;99.90;;;;;;5055607;28;19909;-71
2023/09/24 06:56:45;;;;;;;;;;;9.90;99.90;;;;;;5055470;28;19952;-71
2023/09/24 06:59:10;;;;;;;;;;;10.00;99.90;;;;;;5054270;28;19916;-71
2023/09/24 07:01:37;;;;;;;;;;;10.20;99.90;;;;;;5055543;28;19931;-71
2023/09/24 07:04:03;;;;;;;;;;;10.30;99.90;;;;;;5055456;28;20465;-72
2023/09/24 07:06:28;;;;;;;;;;;10.50;99.90;;;;;;5055386;28;19912;-72
2023/09/24 07:08:54;;;;;;;;;;;10.60;99.90;;;;;;5055189;28;19923;-72
2023/09/24 07:11:20;;;;;;;;;;;10.80;99.90;;;;;;5055547;28;19916;-73
2023/09/24 07:13:45;;;;;;;;;;;10.90;99.90;;;;;;5055212;28;20013;-73
2023/09/24 07:16:11;;;;;;;;;;;11.00;99.90;;;;;;5055204;28;19948;-73
2023/09/24 07:18:37;;;;;;;;;;;11.20;99.90;;;;;;5055312;28;19909;-73
2023/09/24 07:21:02;;;;;;;;;;;11.30;99.90;;;;;;5055212;28;19908;-73
2023/09/24 07:23:28;;;;;;;;;;;11.40;99.90;;;;;;5054467;28;19919;-73
2023/09/24 07:25:53;;;;;;;;;;;11.50;99.90;;;;;;5050867;28;19923;-73
2023/09/24 07:28:20;;;;;;;;;;;11.50;99.90;;;;;;5044617;28;19976;-73
2023/09/24 07:30:45;;;;;;;;;;;11.60;99.90;;;;;;5043120;28;19916;-73
2023/09/24 07:33:11;;;;;;;;;;;11.70;99.90;;;;;;5070495;28;19913;-73
2023/09/24 07:35:37;;;;;;;;;;;11.90;99.90;;;;;;5070539;28;19996;-73
2023/09/24 07:38:02;;;;;;;;;;;12.00;99.90;;;;;;5053888;28;19909;-73
2023/09/24 07:40:29;;;;;;;;;;;12.10;99.90;;;;;;5055193;28;19916;-74
2023/09/24 07:42:55;;;;;;;;;;;12.20;99.90;;;;;;5051892;28;19917;-73
2023/09/24 07:45:20;;;;;;;;;;;12.40;99.90;;;;;;5058540;28;20300;-73
2023/09/24 07:47:46;;;;;;;;;;;12.40;99.90;;;;;;5058623;28;19916;-74
2023/09/24 07:50:11;;;;;;;;;;;12.50;99.90;;;;;;5058773;28;20416;-73
2023/09/24 07:52:37;;;;;;;;;;;12.60;99.90;;;;;;5058462;28;19919;-73
2023/09/24 07:55:02;;;;;;;;;;;12.70;99.90;;;;;;5058725;28;19909;-73
2023/09/24 07:57:28;;;;;;;;;;;13.00;99.90;;;;;;5058646;28;19909;-74
2023/09/24 07:59:54;;;;;;;;;;;13.20;99.90;;;;;;5058318;28;19909;-74
2023/09/24 08:02:20;;;;;;;;;;;13.40;99.90;;;;;;5058413;28;19913;-73
2023/09/24 08:04:46;;;;;;;;;;;13.50;99.90;;;;;;5058325;28;19913;-73
2023/09/24 08:07:11;;;;;;;;;;;13.70;99.90;;;;;;5058620;28;19908;-74
2023/09/24 08:09:38;;;;;;;;;;;13.90;99.90;;;;;;5051045;28;20004;-74
2023/09/24 08:12:04;;;;;;;;;;;14.00;99.90;;;;;;5049465;28;19915;-74
2023/09/24 08:14:29;;;;;;;;;;;14.20;99.90;;;;;;5058080;28;19944;-73
2023/09/24 08:16:55;;;;;;;;;;;14.30;99.90;;;;;;5058010;28;20000;-74
2023/09/24 08:19:20;;;;;;;;;;;14.40;99.90;;;;;;5056951;28;19912;-74
2023/09/24 08:21:46;;;;;;;;;;;14.50;99.90;;;;;;5058099;28;20392;-73
2023/09/24 08:24:11;;;;;;;;;;;14.60;99.90;;;;;;5058083;28;19912;-73
2023/09/24 08:26:37;;;;;;;;;;;14.70;99.90;;;;;;5057708;28;19921;-73
2023/09/24 08:29:06;;;;;;;;;;;14.80;99.90;;;;;;5057799;28;19958;-73
2023/09/24 08:31:32;;;;;;;;;;;15.10;99.90;;;;;;5057901;28;19968;-74
2023/09/24 08:33:58;;;;;;;;;;;15.10;99.90;;;;;;5057858;28;19948;-73
2023/09/24 08:36:23;;;;;;;;;;;15.30;99.90;;;;;;5056228;28;19916;-73
2023/09/24 08:38:49;;;;;;;;;;;15.50;99.90;;;;;;5056585;28;20441;-74
2023/09/24 08:41:14;;;;;;;;;;;15.60;99.90;;;;;;5057531;28;20402;-73
2023/09/24 08:43:43;;;;;;;;;;;15.60;99.90;;;;;;5057398;28;20438;-73
2023/09/24 08:46:10;;;;;;;;;;;15.80;99.90;;;;;;5069432;28;19909;-74
2023/09/24 08:48:36;;;;;;;;;;;15.90;99.90;;;;;;5049936;28;20335;-73
2023/09/24 08:51:03;;;;;;;;;;;16.10;99.90;;;;;;5057334;28;19920;-74
2023/09/24 08:53:30;;;;;;;;;;;16.20;99.90;;;;;;5056047;28;19913;-72
2023/09/24 08:55:55;;;;;;;;;;;16.30;99.90;;;;;;5057383;28;19912;-73
2023/09/24 08:58:22;;;;;;;;;;;16.40;99.90;;;;;;5089849;28;19940;-74
2023/09/24 09:00:48;;;;;;;;;;;16.60;99.90;;;;;;5045371;28;20411;-73
2023/09/24 09:03:13;;;;;;;;;;;16.70;99.90;;;;;;5072743;28;19908;-74
2023/09/24 09:05:42;;;;;;;;;;;16.70;99.90;;;;;;5057101;28;20280;-74
2023/09/24 09:08:07;;;;;;;;;;;16.60;99.90;;;;;;5057296;28;19920;-73
2023/09/24 09:10:33;;;;;;;;;;;16.80;99.90;;;;;;5057154;28;20403;-74
2023/09/24 09:13:13;;;;;;;;;;;16.90;99.90;;;;;;5056373;28;19980;-73
2023/09/24 09:15:40;;;;;;;;;;;17.00;99.90;;;;;;5056748;28;20391;-73
2023/09/24 09:18:05;;;;;;;;;;;17.10;99.90;;;;;;5055562;28;19996;-73
2023/09/24 09:20:41;;;;;;;;;;;17.30;99.90;;;;;;5056616;28;19940;-73
2023/09/24 09:23:11;;;;;;;;;;;17.30;99.90;;;;;;5054350;28;19913;-73
2023/09/24 09:25:48;;;;;;;;;;;17.50;99.90;;;;;;5041925;28;19913;-74
2023/09/24 09:28:25;;;;;;;;;;;17.60;99.90;;;;;;5056792;28;19921;-73
2023/09/24 09:30:57;;;;;;;;;;;17.80;99.90;;;;;;5048948;28;19951;-74
2023/09/24 09:33:26;;;;;;;;;;;18.00;99.90;;;;;;5056508;28;19989;-73
2023/09/24 09:35:52;;;;;;;;;;;18.10;99.90;;;;;;5056534;28;19915;-73
2023/09/24 09:38:17;;;;;;;;;;;18.20;99.90;;;;;;5056676;28;19917;-73
2023/09/24 09:40:43;;;;;;;;;;;18.30;99.90;;;;;;5056507;28;19912;-74
2023/09/24 09:43:09;;;;;;;;;;;18.40;99.90;;;;;;5056495;28;19917;-74
2023/09/24 09:45:35;;;;;;;;;;;18.40;99.90;;;;;;5056326;28;20785;-74
2023/09/24 09:48:04;;;;;;;;;;;18.50;99.90;;;;;;5056614;28;19909;-71
2023/09/24 09:50:33;;;;;;;;;;;18.50;99.90;;;;;;5056281;28;19909;-72
2023/09/24 09:53:01;;;;;;;;;;;18.60;99.90;;;;;;5056516;28;19917;-72
2023/09/24 09:55:26;;;;;;;;;;;18.70;99.90;;;;;;5056346;28;20376;-72
2023/09/24 09:57:52;;;;;;;;;;;18.80;99.90;;;;;;5056353;28;19909;-72
2023/09/24 10:00:18;;;;;;;;;;;18.90;99.90;;;;;;5056050;28;19930;-71
2023/09/24 10:02:44;;;;;;;;;;;19.00;99.90;;;;;;5056208;28;19947;-72
2023/09/24 10:05:13;;;;;;;;;;;19.10;99.90;;;;;;5055592;28;19909;-71
2023/09/24 10:07:38;;;;;;;;;;;19.30;99.90;;;;;;5056302;28;19951;-72
2023/09/24 10:10:23;;;;;;;;;;;19.30;99.90;;;;;;5054898;28;20301;-72
2023/09/24 10:12:49;;;;;;;;;;;19.40;99.90;;;;;;5056288;28;20377;-72
2023/09/24 10:15:25;;;;;;;;;;;19.50;99.90;;;;;;5054537;28;19913;-72
2023/09/24 10:18:06;;;;;;;;;;;19.60;99.90;;;;;;5088553;28;20357;-72
2023/09/24 10:20:50;;;;;;;;;;;19.70;99.90;;;;;;5056061;28;20013;-71
2023/09/24 10:23:31;;;;;;;;;;;19.70;99.90;;;;;;5053713;28;20404;-72
2023/09/24 10:26:00;;;;;;;;;;;19.80;99.90;;;;;;5055836;28;20339;-73
2023/09/24 10:28:44;;;;;;;;;;;19.80;99.90;;;;;;5055025;28;19925;-72
2023/09/24 10:31:11;;;;;;;;;;;19.90;99.90;;;;;;5055596;28;19917;-73
2023/09/24 10:34:03;;;;;;;;;;;20.10;99.90;;;;;;5054623;28;20339;-72
2023/09/24 10:36:30;;;;;;;;;;;20.20;99.90;;;;;;5053333;28;19909;-73
2023/09/24 10:39:05;;;;;;;;;;;20.20;99.90;;;;;;5088161;28;19913;-72
2023/09/24 10:41:32;;;;;;;;;;;20.20;99.90;;;;;;5059350;28;19984;-72
2023/09/24 10:44:17;;;;;;;;;;;20.10;99.90;;;;;;5055375;28;20280;-73
2023/09/24 10:46:43;;;;;;;;;;;20.20;99.90;;;;;;5048345;28;19909;-71
2023/09/24 10:49:08;;;;;;;;;;;20.30;99.90;;;;;;5055529;28;19916;-72
2023/09/24 10:51:34;;;;;;;;;;;20.30;99.90;;;;;;5055651;28;19916;-73
2023/09/24 10:54:15;;;;;;;;;;;20.30;99.90;;;;;;5055426;28;19997;-72
2023/09/24 10:56:46;;;;;;;;;;;20.40;99.90;;;;;;5055809;28;20404;-72
2023/09/24 10:59:14;;;;;;;;;;;20.40;99.90;;;;;;5054574;28;19913;-73
2023/09/24 11:01:40;;;;;;;;;;;20.40;99.90;;;;;;5055649;28;19909;-72
2023/09/24 11:04:06;;;;;;;;;;;20.50;99.90;;;;;;5055617;28;19912;-73
2023/09/24 11:06:32;;;;;;;;;;;20.50;99.90;;;;;;5087753;28;19909;-72
2023/09/24 11:09:16;;;;;;;;;;;20.50;99.90;;;;;;5055758;28;20011;-73
2023/09/24 11:11:42;;;;;;;;;;;20.60;99.90;;;;;;5055646;28;19943;-73
2023/09/24 11:14:15;;;;;;;;;;;20.70;99.90;;;;;;5055281;28;20343;-73
2023/09/24 11:16:40;;;;;;;;;;;20.80;99.90;;;;;;5054078;28;19909;-73
2023/09/24 11:19:06;;;;;;;;;;;20.80;99.90;;;;;;5059497;28;20420;-72
2023/09/24 11:21:31;;;;;;;;;;;20.90;99.90;;;;;;5059229;28;19991;-73
2023/09/24 11:23:57;;;;;;;;;;;21.00;99.90;;;;;;5059484;28;19909;-73
2023/09/24 11:26:29;;;;;;;;;;;21.10;99.90;;;;;;5059203;28;20389;-73
2023/09/24 11:28:57;;;;;;;;;;;21.10;99.90;;;;;;5091346;28;19916;-73
2023/09/24 11:31:24;;;;;;;;;;;21.20;99.90;;;;;;5091562;28;20419;-73
2023/09/24 11:33:56;;;;;;;;;;;21.20;99.90;;;;;;5059216;28;19916;-72
2023/09/24 11:36:22;;;;;;;;;;;21.20;99.90;;;;;;5059014;28;20011;-73
2023/09/24 11:38:58;;;;;;;;;;;21.10;97.80;;;;;;5059427;28;19915;-72
2023/09/24 11:41:23;;;;;;;;;;;21.20;98.60;;;;;;5073718;28;19909;-73
2023/09/24 11:43:56;;;;;;;;;;;21.20;99.80;;;;;;5058756;28;20338;-72
2023/09/24 11:46:24;;;;;;;;;;;21.20;99.90;;;;;;5047139;28;19909;-73
2023/09/24 11:48:50;;;;;;;;;;;21.20;99.00;;;;;;5058868;28;19909;-73
2023/09/24 11:51:15;;;;;;;;;;;21.40;99.90;;;;;;5058936;28;19962;-73
2023/09/24 11:53:41;;;;;;;;;;;21.40;99.40;;;;;;5058534;28;20791;-73
2023/09/24 11:56:07;;;;;;;;;;;21.50;98.80;;;;;;5058898;28;19913;-73
2023/09/24 11:58:33;;;;;;;;;;;21.70;99.10;;;;;;5058568;28;19935;-72
2023/09/24 12:00:58;;;;;;;;;;;21.80;97.80;;;;;;5058723;28;19909;-72
2023/09/24 12:03:25;;;;;;;;;;;21.90;98.50;;;;;;5058426;28;19909;-73
2023/09/24 12:05:50;;;;;;;;;;;22.00;97.80;;;;;;5058190;28;19916;-72
2023/09/24 12:08:16;;;;;;;;;;;22.10;97.50;;;;;;5058241;28;19913;-73
2023/09/24 12:10:42;;;;;;;;;;;22.10;96.60;;;;;;5058341;28;19913;-73
2023/09/24 12:13:08;;;;;;;;;;;22.00;94.20;;;;;;5058137;28;19916;-73
2023/09/24 12:15:34;;;;;;;;;;;22.10;93.30;;;;;;5056716;28;19992;-73
2023/09/24 12:18:01;;;;;;;;;;;22.10;93.50;;;;;;5056762;28;19959;-72
2023/09/24 12:20:27;;;;;;;;;;;22.10;94.40;;;;;;5057878;28;20046;-73
2023/09/24 12:22:53;;;;;;;;;;;22.20;96.00;;;;;;5057935;28;19912;-73
2023/09/24 12:25:18;;;;;;;;;;;22.30;94.50;;;;;;5056610;28;19920;-73
2023/09/24 12:27:44;;;;;;;;;;;22.50;95.50;;;;;;5056987;28;20295;-73
2023/09/24 12:30:11;;;;;;;;;;;22.70;92.90;;;;;;5056836;28;19916;-73
2023/09/24 12:32:40;;;;;;;;;;;22.70;93.50;;;;;;5057686;28;20384;-73
2023/09/24 12:35:10;;;;;;;;;;;22.90;92.60;;;;;;5056606;28;20364;-73
2023/09/24 12:37:36;;;;;;;;;;;23.10;91.30;;;;;;5057430;28;19966;-73
2023/09/24 12:40:07;;;;;;;;;;;23.00;91.80;;;;;;5056513;28;19909;-73
2023/09/24 12:42:33;;;;;;;;;;;23.00;90.80;;;;;;5057602;28;19920;-72
2023/09/24 12:44:59;;;;;;;;;;;23.20;92.60;;;;;;5057551;28;19913;-73
2023/09/24 12:47:25;;;;;;;;;;;23.20;94.60;;;;;;5057395;28;20273;-73
2023/09/24 12:49:57;;;;;;;;;;;23.20;93.00;;;;;;5057617;28;20399;-72
2023/09/24 12:52:25;;;;;;;;;;;23.10;90.30;;;;;;5057272;28;19917;-73
2023/09/24 12:54:51;;;;;;;;;;;23.00;90.80;;;;;;5057495;28;20005;-73
2023/09/24 12:57:17;;;;;;;;;;;22.90;90.80;;;;;;5057341;28;20011;-73
2023/09/24 12:59:42;;;;;;;;;;;23.00;89.30;;;;;;5055962;28;19915;-73
2023/09/24 13:02:08;;;;;;;;;;;23.10;90.40;;;;;;5057269;28;20691;-73
2023/09/24 13:04:34;;;;;;;;;;;23.30;88.80;;;;;;5057337;28;19932;-73
2023/09/24 13:07:00;;;;;;;;;;;23.40;88.10;;;;;;5057134;28;19912;-73
2023/09/24 13:09:26;;;;;;;;;;;23.50;85.80;;;;;;5057373;28;20273;-73
2023/09/24 13:11:51;;;;;;;;;;;23.60;85.90;;;;;;5057077;28;20396;-73
2023/09/24 13:14:17;;;;;;;;;;;23.70;87.70;;;;;;5056764;28;19912;-73
2023/09/24 13:16:44;;;;;;;;;;;23.60;88.20;;;;;;5057006;28;19913;-73
2023/09/24 13:19:11;;;;;;;;;;;23.60;89.10;;;;;;5057180;28;19912;-73
2023/09/24 13:21:38;;;;;;;;;;;23.70;87.60;;;;;;5056661;28;20342;-73
2023/09/24 13:24:03;;;;;;;;;;;23.80;87.60;;;;;;5057018;28;20004;-73
2023/09/24 13:26:29;;;;;;;;;;;23.90;89.80;;;;;;5056599;28;20012;-73
2023/09/24 13:28:54;;;;;;;;;;;23.80;87.90;;;;;;5056667;28;19923;-73
2023/09/24 13:31:20;;;;;;;;;;;24.00;89.70;;;;;;5055290;28;19944;-73
2023/09/24 13:33:45;;;;;;;;;;;24.10;86.60;;;;;;5056781;28;19974;-72
2023/09/24 13:36:13;;;;;;;;;;;24.20;86.50;;;;;;5055702;28;20403;-73
2023/09/24 13:38:38;;;;;;;;;;;24.20;81.70;;;;;;5055508;28;19913;-72
2023/09/24 13:41:04;;;;;;;;;;;24.10;82.40;;;;;;5087725;28;20286;-73
2023/09/24 13:43:30;;;;;;;;;;;24.20;85.80;;;;;;5056451;28;19916;-73
2023/09/24 13:45:55;;;;;;;;;;;24.30;82.40;;;;;;5056103;28;19913;-73
2023/09/24 13:48:21;;;;;;;;;;;24.40;81.90;;;;;;5056384;28;19948;-73
2023/09/24 13:50:50;;;;;;;;;;;24.40;83.30;;;;;;5056294;28;19956;-73
2023/09/24 13:53:15;;;;;;;;;;;24.40;82.80;;;;;;5054938;28;19913;-73
2023/09/24 13:55:43;;;;;;;;;;;24.50;78.80;;;;;;5088305;28;19920;-73
2023/09/24 13:58:09;;;;;;;;;;;24.50;81.90;;;;;;5056261;28;19908;-73
2023/09/24 14:00:34;;;;;;;;;;;24.60;84.10;;;;;;5056008;28;20040;-73
2023/09/24 14:03:00;;;;;;;;;;;24.60;78.40;;;;;;5056290;28;19913;-73
2023/09/24 14:05:26;;;;;;;;;;;24.60;85.10;;;;;;5054639;28;19917;-72
2023/09/24 14:12:16;;;;;;;;;;;24.60;80.20;;;;;;5054771;28;19920;-73
2023/09/24 14:13:24;;;;;;;;;;;24.70;87.70;;;;;;5055909;28;19931;-73
2023/09/24 14:15:49;;;;;;;;;;;24.80;83.60;;;;;;5055625;28;19912;-73
2023/09/24 14:18:15;;;;;;;;;;;24.90;79.30;;;;;;5055838;28;19917;-73
2023/09/24 14:20:41;;;;;;;;;;;25.00;78.40;;;;;;5088141;28;19909;-74
2023/09/24 14:23:06;;;;;;;;;;;25.00;75.20;;;;;;5054885;28;20407;-73